Time;durP1;ratioP1;P1;durP2;ratioP2;P2;SDS_P1;SDS_P2;PMS_P1;PMS_P2;Temp;Humidity;BMP_temperature;BMP_pressure;BME280_temperature;BME280_humidity;BME280_pressure;Samples;Min_cycle;Max_cycle;Signal;HPM_P1;HPM_P2
2022/08/31 00:04:01;;;;;;;3.7;6.7;;;;;;;14.1;100;98910;;;;
2022/08/31 00:15:00;;;;;;;3.7;6.7;;;;;;;14.2;100;98910;;;;
2022/08/31 00:25:00;;;;;;;3.7;6.7;;;;;;;14;100;98910;;;;
2022/08/31 00:36:00;;;;;;;3.3;6.6;;;;;;;14.2;100;98910;;;;
2022/08/31 00:46:00;;;;;;;3.3;6.6;;;;;;;14.2;100;98910;;;;
2022/08/31 00:57:00;;;;;;;3.3;6.6;;;;;;;14.1;100;98900;;;;
2022/08/31 01:07:00;;;;;;;4.2;7.7;;;;;;;13.9;100;98900;;;;
2022/08/31 01:17:00;;;;;;;4.2;7.7;;;;;;;13.8;100;98910;;;;
2022/08/31 01:28:00;;;;;;;4.2;7.7;;;;;;;13.7;100;98910;;;;
2022/08/31 01:38:00;;;;;;;4.5;7.5;;;;;;;13.7;100;98910;;;;
2022/08/31 01:48:00;;;;;;;4.5;7.5;;;;;;;13.6;100;98920;;;;
2022/08/31 01:59:00;;;;;;;4.7;9;;;;;;;13.4;100;98920;;;;
2022/08/31 02:10:00;;;;;;;4.7;9;;;;;;;13.2;100;98910;;;;
2022/08/31 02:20:00;;;;;;;4.7;9;;;;;;;12.9;100;98910;;;;
2022/08/31 02:30:00;;;;;;;3.3;5.7;;;;;;;12.8;100;98910;;;;
2022/08/31 02:40:00;;;;;;;3.3;5.7;;;;;;;12.7;100;98910;;;;
2022/08/31 02:50:00;;;;;;;3.3;5.7;;;;;;;12.6;100;98900;;;;
2022/08/31 03:00:00;;;;;;;3.9;9.2;;;;;;;12.6;100;98900;;;;
2022/08/31 03:10:01;;;;;;;3.9;9.2;;;;;;;12.6;100;98910;;;;
2022/08/31 03:21:01;;;;;;;3.9;9.2;;;;;;;12.4;100;98910;;;;
2022/08/31 03:31:00;;;;;;;3.8;5.9;;;;;;;12.2;100;98920;;;;
2022/08/31 03:42:00;;;;;;;3.8;5.9;;;;;;;12.2;100;98910;;;;
2022/08/31 03:52:01;;;;;;;3.8;5.9;;;;;;;12.1;100;98910;;;;
2022/08/31 04:03:00;;;;;;;4;7;;;;;;;12.1;100;98910;;;;
2022/08/31 04:13:00;;;;;;;4;7;;;;;;;12.1;100;98910;;;;
2022/08/31 04:24:00;;;;;;;4;7;;;;;;;12.2;100;98920;;;;
2022/08/31 04:35:00;;;;;;;4.2;6.1;;;;;;;12.2;100;98930;;;;
2022/08/31 04:45:00;;;;;;;4.2;6.1;;;;;;;12.4;100;98940;;;;
2022/08/31 04:56:00;;;;;;;4.2;6.1;;;;;;;12.5;100;98930;;;;
2022/08/31 05:06:00;;;;;;;4.8;8.5;;;;;;;12.8;100;98940;;;;
2022/08/31 05:17:00;;;;;;;4.8;8.5;;;;;;;13.3;100;98960;;;;
2022/08/31 05:27:00;;;;;;;4.8;8.5;;;;;;;13.8;100;98960;;;;
2022/08/31 05:38:00;;;;;;;5.3;10.5;;;;;;;14.3;100;98960;;;;
2022/08/31 05:49:00;;;;;;;5.3;10.5;;;;;;;14.8;100;98970;;;;
2022/08/31 05:59:00;;;;;;;6.8;11.5;;;;;;;15.2;100;98970;;;;
2022/08/31 06:10:00;;;;;;;6.8;11.5;;;;;;;15.5;100;98980;;;;
2022/08/31 06:21:00;;;;;;;6.8;11.5;;;;;;;16;100;98990;;;;
2022/08/31 06:31:00;;;;;;;5.9;8.6;;;;;;;16.4;100;99000;;;;
2022/08/31 06:42:02;;;;;;;5.9;8.6;;;;;;;16.6;100;99000;;;;
2022/08/31 06:53:00;;;;;;;5.9;8.6;;;;;;;16.9;100;99000;;;;
2022/08/31 07:03:21;;;;;;;6.7;10.4;;;;;;;17.4;100;99010;;;;
2022/08/31 07:13:00;;;;;;;6.7;10.4;;;;;;;18;100;99020;;;;
2022/08/31 07:23:00;;;;;;;6.7;10.4;;;;;;;18.5;100;99020;;;;
2022/08/31 07:34:06;;;;;;;4.8;9.8;;;;;;;18.9;100;99030;;;;
2022/08/31 07:45:00;;;;;;;4.8;9.8;;;;;;;18.7;100;99030;;;;
2022/08/31 07:55:06;;;;;;;4.8;9.8;;;;;;;19.1;100;99030;;;;
2022/08/31 08:06:00;;;;;;;2.5;5.7;;;;;;;19.2;100;99030;;;;
2022/08/31 08:17:00;;;;;;;2.5;5.7;;;;;;;19.5;100;99040;;;;
2022/08/31 08:28:00;;;;;;;1.7;5.3;;;;;;;19.9;100;99050;;;;
2022/08/31 08:38:01;;;;;;;1.7;5.3;;;;;;;20.2;100;99040;;;;
2022/08/31 08:48:00;;;;;;;1.7;5.3;;;;;;;20.6;100;99050;;;;
2022/08/31 08:59:01;;;;;;;1.8;4.3;;;;;;;20.4;100;99040;;;;
2022/08/31 09:10:00;;;;;;;1.8;4.3;;;;;;;20.3;100;99040;;;;
2022/08/31 09:21:00;;;;;;;1.8;4.3;;;;;;;20.7;100;99030;;;;
2022/08/31 09:32:00;;;;;;;2.1;4.1;;;;;;;20.9;100;99020;;;;
2022/08/31 09:43:00;;;;;;;2.1;4.1;;;;;;;20.6;100;99020;;;;
2022/08/31 10:04:01;;;;;;;2.1;4.2;;;;;;;20.9;100;99010;;;;
2022/08/31 10:15:02;;;;;;;2.1;4.2;;;;;;;20.7;100;99010;;;;
2022/08/31 10:26:01;;;;;;;2.1;4.2;;;;;;;20.5;100;99010;;;;
2022/08/31 10:37:02;;;;;;;2.4;4.9;;;;;;;20.6;100;99010;;;;
2022/08/31 10:47:03;;;;;;;2.4;4.9;;;;;;;21.1;100;99000;;;;
2022/08/31 10:58:00;;;;;;;2.4;4.9;;;;;;;21.2;100;98990;;;;
2022/08/31 11:08:01;;;;;;;2.3;5.8;;;;;;;21.7;100;98990;;;;
2022/08/31 11:19:04;;;;;;;2.3;5.8;;;;;;;21.5;100;98990;;;;
2022/08/31 11:30:01;;;;;;;2.5;7.5;;;;;;;20.6;100;98980;;;;
2022/08/31 11:40:00;;;;;;;2.5;7.5;;;;;;;21.2;100;98980;;;;
2022/08/31 11:51:00;;;;;;;2.5;7.5;;;;;;;21.7;100;98970;;;;
2022/08/31 12:01:01;;;;;;;1.8;5.1;;;;;;;21.6;100;98970;;;;
2022/08/31 12:12:06;;;;;;;1.8;5.1;;;;;;;21.8;100;98960;;;;
2022/08/31 12:33:00;;;;;;;1.3;4.7;;;;;;;22.6;100;98950;;;;
2022/08/31 12:43:00;;;;;;;1.3;4.7;;;;;;;22.8;98.5;98960;;;;
2022/08/31 12:53:00;;;;;;;1.3;4.7;;;;;;;22.8;98.2;98950;;;;
2022/08/31 13:03:00;;;;;;;1.2;3.5;;;;;;;22.5;99.1;98940;;;;
2022/08/31 13:13:00;;;;;;;1.2;3.5;;;;;;;22.5;100;98940;;;;
2022/08/31 13:23:01;;;;;;;1.2;3.5;;;;;;;22.8;100;98930;;;;
2022/08/31 13:34:01;;;;;;;2;5.3;;;;;;;22.9;97.7;98920;;;;
2022/08/31 13:45:00;;;;;;;2;5.3;;;;;;;23.8;93.9;98910;;;;
2022/08/31 13:56:01;;;;;;;2;5.3;;;;;;;24.1;92.7;98900;;;;
2022/08/31 14:06:00;;;;;;;1.5;3.8;;;;;;;24.4;90.2;98900;;;;
2022/08/31 14:16:01;;;;;;;1.5;3.8;;;;;;;23.9;87.8;98900;;;;
2022/08/31 14:26:00;;;;;;;1.5;3.8;;;;;;;22.4;94.9;98900;;;;
2022/08/31 14:36:03;;;;;;;1.2;2.8;;;;;;;23.3;91;98890;;;;
2022/08/31 14:46:00;;;;;;;1.2;2.8;;;;;;;22.8;94.5;98890;;;;
2022/08/31 14:57:00;;;;;;;1.2;2.8;;;;;;;22.4;93.3;98890;;;;
2022/08/31 15:07:04;;;;;;;1.4;3;;;;;;;21.9;92.9;98890;;;;
2022/08/31 15:17:04;;;;;;;1.4;3;;;;;;;21.5;94.7;98890;;;;
2022/08/31 15:27:01;;;;;;;1.4;3;;;;;;;21;98.9;98890;;;;
2022/08/31 15:38:02;;;;;;;0.8;2.6;;;;;;;21.1;98.7;98880;;;;
2022/08/31 15:49:04;;;;;;;0.8;2.6;;;;;;;21;98.4;98880;;;;
2022/08/31 15:59:03;;;;;;;6.8;11.8;;;;;;;20.8;98.5;98880;;;;
2022/08/31 16:10:00;;;;;;;6.8;11.8;;;;;;;20.5;98.1;98880;;;;
2022/08/31 16:20:00;;;;;;;6.8;11.8;;;;;;;20.2;98.4;98880;;;;
2022/08/31 16:31:01;;;;;;;25.8;37.3;;;;;;;19.5;100;98870;;;;
2022/08/31 16:42:00;;;;;;;25.8;37.3;;;;;;;19.6;100;98870;;;;
2022/08/31 16:52:02;;;;;;;25.8;37.3;;;;;;;19.4;100;98870;;;;
2022/08/31 17:03:00;;;;;;;8.8;14.9;;;;;;;18.8;100;98870;;;;
2022/08/31 17:13:00;;;;;;;8.8;14.9;;;;;;;18.5;100;98880;;;;
2022/08/31 17:23:01;;;;;;;8.8;14.9;;;;;;;18.3;100;98880;;;;
2022/08/31 17:34:00;;;;;;;1.4;7.6;;;;;;;18.1;100;98890;;;;
2022/08/31 17:45:03;;;;;;;1.4;7.6;;;;;;;17.9;100;98890;;;;
2022/08/31 17:55:00;;;;;;;1.4;7.6;;;;;;;17.8;100;98900;;;;
2022/08/31 18:06:00;;;;;;;1.4;3.4;;;;;;;17.7;100;98910;;;;
2022/08/31 18:17:00;;;;;;;1.4;3.4;;;;;;;17.4;100;98920;;;;
2022/08/31 18:27:02;;;;;;;1.4;3.4;;;;;;;17.1;100;98920;;;;
2022/08/31 18:38:00;;;;;;;1.5;3.6;;;;;;;16.7;100;98930;;;;
2022/08/31 18:48:02;;;;;;;1.5;3.6;;;;;;;16.6;100;98930;;;;
2022/08/31 18:59:00;;;;;;;1.6;6.3;;;;;;;16.3;100;98930;;;;
2022/08/31 19:09:00;;;;;;;1.6;6.3;;;;;;;16;100;98940;;;;
2022/08/31 19:19:00;;;;;;;1.6;6.3;;;;;;;15.8;100;98940;;;;
2022/08/31 19:29:07;;;;;;;3;6.4;;;;;;;15.7;100;98930;;;;
2022/08/31 19:40:00;;;;;;;3;6.4;;;;;;;15.5;100;98920;;;;
2022/08/31 19:50:00;;;;;;;3;6.4;;;;;;;15.4;100;98920;;;;
2022/08/31 20:00:01;;;;;;;2.4;5.7;;;;;;;15.4;100;98910;;;;
2022/08/31 20:11:01;;;;;;;2.4;5.7;;;;;;;15.3;100;98920;;;;
2022/08/31 20:21:01;;;;;;;2.4;5.7;;;;;;;15.4;100;98930;;;;
2022/08/31 20:31:01;;;;;;;2.4;5.1;;;;;;;15.3;100;98930;;;;
2022/08/31 20:42:01;;;;;;;2.4;5.1;;;;;;;15.3;100;98920;;;;
2022/08/31 20:52:01;;;;;;;2.4;5.1;;;;;;;15.2;100;98930;;;;
2022/08/31 21:03:01;;;;;;;2.6;5.2;;;;;;;15.1;100;98920;;;;
2022/08/31 21:13:01;;;;;;;2.6;5.2;;;;;;;14.9;100;98920;;;;
2022/08/31 21:23:01;;;;;;;2.6;5.2;;;;;;;14.9;100;98920;;;;
2022/08/31 21:33:01;;;;;;;2.7;5.9;;;;;;;15;100;98920;;;;
2022/08/31 21:44:01;;;;;;;2.7;5.9;;;;;;;15;100;98920;;;;
2022/08/31 21:55:04;;;;;;;2.7;5.9;;;;;;;15;100;98920;;;;
2022/08/31 22:06:03;;;;;;;2.8;8.1;;;;;;;14.9;100;98920;;;;
2022/08/31 22:17:04;;;;;;;2.8;8.1;;;;;;;14.8;100;98930;;;;
2022/08/31 22:28:01;;;;;;;2.8;8.1;;;;;;;14.8;100;98930;;;;
2022/08/31 22:49:01;;;;;;;2.8;6.4;;;;;;;14.4;100;98920;;;;
2022/08/31 23:00:01;;;;;;;2.9;5.9;;;;;;;14.2;100;98920;;;;
2022/08/31 23:11:01;;;;;;;2.9;5.9;;;;;;;13.9;100;98920;;;;
2022/08/31 23:21:01;;;;;;;2.9;5.9;;;;;;;13.5;100;98920;;;;
2022/08/31 23:32:01;;;;;;;2.9;7.1;;;;;;;13.2;100;98910;;;;
2022/08/31 23:42:01;;;;;;;2.9;7.1;;;;;;;13.1;100;98900;;;;
2022/08/31 23:53:01;;;;;;;2.9;7.1;;;;;;;13.1;100;98890;;;;
